Las horas y fechas están en horario UTC
Sumar 1 hora en el horario de Invierno y 2 horas en el de Verano

Informes METAR cercanos

 

LEZL - Sevilla (civ/Mil, Spain
Distance from station: NNE 24km
Actualización: 18/01/2019 16:00
Despejado
Despejado
 Viento del O
Viento: O 11 km/h
Temperatura: 16°C
Rocío: 3°C
Humedad: 42%
Barómetro: 1020 hPa
Resumen: Despejado
Visibility: greater than 10 km
2019/01/18 15:00 LEZL 181500Z 26006KT 230V320 CAVOK 16/03 Q1020 NOSIG
LEMO - Moron (sp-Usafb), Spain
Distance from station: E 38km
Actualización: 18/01/2019 16:00
Despejado
Despejado
 Viento del varies
Viento: varies 7 km/h
Temperatura: 14°C
Rocío: 3°C
Humedad: 48%
Barómetro: 1020 hPa
Resumen: Despejado
Visibility: greater than 10 km
2019/01/18 15:00 LEMO 181500Z VRB04KT CAVOK 14/03 Q1020 NOSIG
LEJR - Jerez (civ/Mil), Spain
Distance from station: S 53km
Actualización: 18/01/2019 16:00
Despejado
Despejado
 Viento del NO
Viento: NO 13 km/h
Temperatura: 15°C
Rocío: 5°C
Humedad: 51%
Barómetro: 1020 hPa
Resumen: Despejado
Visibility: greater than 10 km
2019/01/18 15:00 LEJR 181500Z 32007KT 210V010 CAVOK 15/05 Q1020
 
LERT - Rota Naval Stati, Spain
Distance from station: SSO 71km
Actualización: 18/01/2019 16:00
Despejado
Despejado
 Viento del ONO
Viento: ONO 13 km/h
Temperatura: 13°C
Rocío: 6°C
Humedad: 63%
Barómetro: 1020 hPa
Resumen: Despejado
Visibility: greater than 10 km
2019/01/18 15:00 LERT 181500Z 29007KT 260V320 CAVOK 13/06 Q1020 NOSIG
LEBA - Cordoba Airport, Spain
Distance from station: ENE 128km
Actualización: 18/01/2019 16:00
Despejado
Despejado
 Viento del SSO
Viento: SSO 6 km/h
Temperatura: 14°C
Rocío: 3°C
Humedad: 48%
Barómetro: 1019 hPa
Resumen: Despejado
Visibility: greater than 10 km
2019/01/18 15:00 LEBA 181500Z 21003KT 170V260 CAVOK 14/03 Q1019
LXGB - Gibraltar (civ/M, Gibraltar
Distance from station: SSE 137km
Actualización: 18/01/2019 15:50
Despejado
Despejado
 Viento del O
Viento: O 24 km/h
Temperatura: 15°C
Rocío: 5°C
Humedad: 51%
Barómetro: 1019 hPa
Resumen: Despejado
Visibility: greater than 10 km
2019/01/18 14:50 LXGB 181450Z 28013KT CAVOK 15/05 Q1019 BLU NOSIG
 
LEMG - Malaga (civ/Mil), Spain
Distance from station: ESE 150km
Actualización: 18/01/2019 16:00
Few Clouds
Few Clouds
 Viento del ONO
Viento: ONO 15 km/h
Temperatura: 15°C
Rocío: 5°C
Humedad: 51%
Barómetro: 1018 hPa
Clouds: Few Clouds
Visibility: 10 km
Cloud details: Few Clouds 762 m
2019/01/18 15:00 LEMG 181500Z 29008KT 9999 FEW025 15/05 Q1018 NOSIG
GMTT - Tangier/Boukhalf, Morocco
Distance from station: S 169km
Actualización: 18/01/2019 16:00
Parcialmente nuboso
Parcialmente nuboso
 Viento del ONO
Viento: ONO 11 km/h
Temperatura: 15°C
Rocío: 7°C
Humedad: 59%
Barómetro: 1020 hPa
Clouds: Parcialmente nuboso
Visibility: 8 km
Cloud details: Parcialmente nuboso 488 m
Parcialmente nuboso 6096 m
2019/01/18 15:00 GMTT 181500Z 30006KT 260V340 8000 SCT016 SCT200 15/07 Q1020 NOSIG
LPFR - Faro, Portugal
Distance from station: O 172km
Actualización: 18/01/2019 16:00
Few Clouds
Few Clouds
 Viento del O
Viento: O 22 km/h
Temperatura: 17°C
Rocío: 1°C
Humedad: 34%
Barómetro: 1020 hPa
Clouds: Few Clouds
Visibility: 10 km
Cloud details: Few Clouds 914 m
2019/01/18 15:00 LPFR 181500Z 27012KT 9999 FEW030 17/01 Q1020
 
LPBJ - Beja (por/Ger-Af, Portugal
Distance from station: ONO 192km
Actualización: 18/01/2019 16:00
Few Clouds
Few Clouds
 Viento del NO
Viento: NO 19 km/h
Temperatura: 13°C
Rocío: 2°C
Humedad: 47%
Barómetro: 1021 hPa
Clouds: Few Clouds
Visibility: 10 km
Cloud details: Few Clouds 1219 m
2019/01/18 15:00 LPBJ 181500Z 31010KT 280V340 9999 FEW040 13/02 Q1021
LEBZ - Talavera Ab/Bada, Spain
Distance from station: NNO 194km
Actualización: 18/01/2019 16:00
Despejado
Despejado
 Viento del OSO
Viento: OSO 13 km/h
Temperatura: 13°C
Rocío: 3°C
Humedad: 51%
Barómetro: 1020 hPa
Resumen: Despejado
Visibility: greater than 10 km
2019/01/18 15:00 LEBZ 181500Z 24007KT CAVOK 13/03 Q1020
LEMD - Madrid/Barajas, Spain
Distance from station: NE 415km
Actualización: 18/01/2019 16:00
Despejado
Despejado
 Viento del SSO
Viento: SSO 13 km/h
Temperatura: 8°C
Wind Chill: 6°C
Rocío: -1°C
Humedad: 53%
Barómetro: 1017 hPa
Resumen: Despejado
Visibility: greater than 10 km
2019/01/18 15:00 LEMD 181500Z 21007KT 180V250 CAVOK 08/M01 Q1017 NOSIG